createdAt,value
2022-12-20T00:01:45.505Z,101363.23
2022-12-20T00:04:14.843Z,101368.13
2022-12-20T00:06:44.421Z,101368.67
2022-12-20T00:09:14.472Z,101359.94
2022-12-20T00:11:43.780Z,101365.58
2022-12-20T00:14:13.244Z,101354.26
2022-12-20T00:16:43.020Z,101350.95
2022-12-20T00:19:13.026Z,101351.73
2022-12-20T00:21:42.505Z,101340.62
2022-12-20T00:24:12.397Z,101343.66
2022-12-20T00:26:41.601Z,101334.35
2022-12-20T00:29:11.637Z,101334.35
2022-12-20T00:31:41.602Z,101333.53
2022-12-20T00:34:11.325Z,101331.11
2022-12-20T00:36:41.241Z,101325.56
2022-12-20T00:39:11.418Z,101330.98
2022-12-20T00:41:40.679Z,101335.18
2022-12-20T00:44:10.011Z,101341.63
2022-12-20T00:46:39.248Z,101335.00
2022-12-20T00:49:10.234Z,101336.88
2022-12-20T00:51:39.451Z,101330.45
2022-12-20T00:54:08.959Z,101334.24
2022-12-20T00:56:38.152Z,101339.48
2022-12-20T00:59:07.906Z,101341.12
2022-12-20T01:01:37.209Z,101338.37
2022-12-20T01:04:06.771Z,101330.82
2022-12-20T01:06:37.325Z,101334.22
2022-12-20T01:09:06.949Z,101340.08
2022-12-20T01:11:37.687Z,101331.95
2022-12-20T01:14:13.325Z,101326.06
2022-12-20T01:16:45.105Z,101335.36
2022-12-20T01:19:18.391Z,101324.30
2022-12-20T01:21:47.780Z,101321.78
2022-12-20T01:24:18.876Z,101308.76
2022-12-20T01:26:49.013Z,101318.41
2022-12-20T01:29:20.230Z,101316.44
2022-12-20T01:31:49.926Z,101310.15
2022-12-20T01:34:19.569Z,101302.73
2022-12-20T01:36:49.639Z,101303.30
2022-12-20T01:39:19.223Z,101296.80
2022-12-20T01:41:48.400Z,101292.80
2022-12-20T01:44:23.646Z,101291.34
2022-12-20T01:46:53.898Z,101280.73
2022-12-20T01:49:29.441Z,101281.80
2022-12-20T01:52:01.447Z,101283.36
2022-12-20T01:54:36.841Z,101283.25
2022-12-20T01:57:12.532Z,101286.09
2022-12-20T01:59:43.290Z,101276.66
2022-12-20T02:02:14.165Z,101270.45
2022-12-20T02:04:44.012Z,101263.42
2022-12-20T02:07:17.373Z,101259.84
2022-12-20T02:09:47.183Z,101269.00
2022-12-20T02:12:18.602Z,101268.25
2022-12-20T02:15:11.010Z,101261.12
2022-12-20T02:17:58.885Z,101247.08
2022-12-20T02:20:46.890Z,101253.32
2022-12-20T02:23:35.846Z,101256.69
2022-12-20T02:26:27.024Z,101249.36
2022-12-20T02:29:11.710Z,101251.85
2022-12-20T02:31:47.268Z,101266.75
2022-12-20T02:34:17.537Z,101255.02
2022-12-20T02:36:46.809Z,101262.24
2022-12-20T02:39:16.710Z,101266.19
2022-12-20T02:41:58.275Z,101264.33
2022-12-20T02:44:47.976Z,101258.91
2022-12-20T02:47:20.312Z,101262.44
2022-12-20T02:49:51.480Z,101261.45
2022-12-20T02:52:22.365Z,101242.16
2022-12-20T02:54:51.786Z,101239.25
2022-12-20T02:57:40.724Z,101237.03
2022-12-20T03:00:13.438Z,101236.36
2022-12-20T03:03:00.371Z,101240.80
2022-12-20T03:05:29.897Z,101230.41
2022-12-20T03:07:59.700Z,101240.33
2022-12-20T03:10:29.354Z,101229.72
2022-12-20T03:12:58.567Z,101242.86
2022-12-20T03:15:29.652Z,101236.44
2022-12-20T03:18:00.331Z,101236.83
2022-12-20T03:20:30.236Z,101239.93
2022-12-20T03:22:59.510Z,101237.64
2022-12-20T03:25:29.112Z,101239.00
2022-12-20T03:27:59.183Z,101239.70
2022-12-20T03:30:29.324Z,101246.89
2022-12-20T03:32:59.175Z,101234.13
2022-12-20T03:35:28.817Z,101241.52
2022-12-20T03:37:58.030Z,101240.70
2022-12-20T03:40:27.799Z,101244.42
2022-12-20T03:42:57.105Z,101246.93
2022-12-20T03:45:26.567Z,101239.42
2022-12-20T03:47:55.793Z,101228.39
2022-12-20T03:50:26.668Z,101216.56
2022-12-20T03:52:56.262Z,101211.53
2022-12-20T03:55:25.785Z,101218.95
2022-12-20T03:57:55.212Z,101223.25
2022-12-20T04:00:26.415Z,101229.59
2022-12-20T04:02:56.995Z,101228.78
2022-12-20T04:05:26.851Z,101232.34
2022-12-20T04:07:56.166Z,101241.93
2022-12-20T04:10:25.542Z,101244.09
2022-12-20T04:12:55.117Z,101242.20
2022-12-20T04:15:24.938Z,101238.86
2022-12-20T04:17:55.664Z,101240.12
2022-12-20T04:20:26.846Z,101257.18
2022-12-20T04:22:57.862Z,101254.39
2022-12-20T04:25:27.494Z,101242.45
2022-12-20T04:27:56.915Z,101240.34
2022-12-20T04:30:26.175Z,101233.08
2022-12-20T04:32:55.921Z,101218.73
2022-12-20T04:35:26.297Z,101215.13
2022-12-20T04:37:55.980Z,101213.94
2022-12-20T04:40:25.195Z,101207.13
2022-12-20T04:42:56.265Z,101204.11
2022-12-20T04:45:26.098Z,101207.35
2022-12-20T04:47:55.876Z,101204.84
2022-12-20T04:50:26.949Z,101206.66
2022-12-20T04:53:14.059Z,101215.81
2022-12-20T04:55:44.145Z,101212.84
2022-12-20T04:58:13.346Z,101203.98
2022-12-20T05:00:43.269Z,101202.45
2022-12-20T05:03:14.453Z,101190.61
2022-12-20T05:05:43.963Z,101193.35
2022-12-20T05:08:13.454Z,101193.55
2022-12-20T05:10:43.470Z,101185.66
2022-12-20T05:13:13.124Z,101172.72
2022-12-20T05:15:44.800Z,101162.59
2022-12-20T05:18:14.258Z,101158.45
2022-12-20T05:20:45.418Z,101160.27
2022-12-20T05:23:32.947Z,101159.42
2022-12-20T05:26:19.030Z,101160.89
2022-12-20T05:28:48.602Z,101146.20
2022-12-20T05:31:18.226Z,101147.86
2022-12-20T05:33:47.839Z,101143.92
2022-12-20T05:36:18.367Z,101143.92
2022-12-20T05:38:48.419Z,101138.81
2022-12-20T05:41:19.899Z,101134.86
2022-12-20T05:43:50.874Z,101127.93
2022-12-20T05:46:20.374Z,101127.72
2022-12-20T05:48:51.757Z,101121.73
2022-12-20T05:51:21.233Z,101121.97
2022-12-20T05:53:55.347Z,101110.51
2022-12-20T05:56:26.274Z,101114.20
2022-12-20T05:58:55.597Z,101106.55
2022-12-20T06:01:25.135Z,101113.98
2022-12-20T06:03:56.739Z,101114.91
2022-12-20T06:06:26.271Z,101104.77
2022-12-20T06:08:56.313Z,101106.20
2022-12-20T06:11:30.201Z,101093.88
2022-12-20T06:13:59.710Z,101096.98
2022-12-20T06:16:29.246Z,101087.05
2022-12-20T06:18:59.127Z,101100.20
2022-12-20T06:21:28.632Z,101104.88
2022-12-20T06:23:59.698Z,101089.34
2022-12-20T06:26:30.851Z,101097.34
2022-12-20T06:29:02.212Z,101095.78
2022-12-20T06:31:33.572Z,101099.62
2022-12-20T06:34:03.163Z,101111.45
2022-12-20T06:36:34.052Z,101106.92
2022-12-20T06:39:09.499Z,101109.91
2022-12-20T06:41:35.602Z,101111.83
2022-12-20T06:44:05.895Z,101110.02
2022-12-20T06:46:35.894Z,101109.17
2022-12-20T06:49:06.302Z,101107.05
2022-12-20T06:51:35.570Z,101107.88
2022-12-20T06:54:06.053Z,101106.55
2022-12-20T06:56:41.286Z,101105.59
2022-12-20T06:59:08.720Z,101117.91
2022-12-20T07:01:38.082Z,101125.34
2022-12-20T07:04:07.594Z,101123.29
2022-12-20T07:06:36.789Z,101123.77
2022-12-20T07:09:06.584Z,101119.70
2022-12-20T07:11:35.840Z,101121.37
2022-12-20T07:14:06.611Z,101110.75
2022-12-20T07:16:36.401Z,101127.12
2022-12-20T07:19:06.197Z,101115.52
2022-12-20T07:21:35.457Z,101124.13
2022-12-20T07:24:06.026Z,101122.81
2022-12-20T07:26:35.421Z,101122.34
2022-12-20T07:29:10.445Z,101124.49
2022-12-20T07:31:37.558Z,101126.63
2022-12-20T07:34:07.054Z,101131.30
2022-12-20T07:36:36.252Z,101133.70
2022-12-20T07:39:07.296Z,101133.70
2022-12-20T07:41:36.505Z,101141.69
2022-12-20T07:44:06.920Z,101132.13
2022-12-20T07:46:36.153Z,101144.45
2022-12-20T07:49:06.290Z,101144.93
2022-12-20T07:51:41.231Z,101142.53
2022-12-20T07:54:22.325Z,101141.95
2022-12-20T07:56:54.338Z,101130.34
2022-12-20T07:59:26.534Z,101136.34
2022-12-20T08:02:00.719Z,101131.31
2022-12-20T08:04:29.077Z,101129.62
2022-12-20T08:06:59.955Z,101132.50
2022-12-20T08:09:35.357Z,101131.41
2022-12-20T08:12:06.431Z,101126.89
2022-12-20T08:14:36.145Z,101136.09
2022-12-20T08:17:05.409Z,101126.39
2022-12-20T08:19:34.891Z,101130.48
2022-12-20T08:22:04.390Z,101134.17
2022-12-20T08:24:35.037Z,101127.24
2022-12-20T08:27:04.319Z,101131.64
2022-12-20T08:29:33.976Z,101128.52
2022-12-20T08:32:03.151Z,101135.23
2022-12-20T08:34:32.875Z,101130.92
2022-12-20T08:37:02.075Z,101121.92
2022-12-20T08:39:31.835Z,101126.25
2022-12-20T08:42:01.484Z,101132.09
2022-12-20T08:44:30.915Z,101123.73
2022-12-20T08:47:00.684Z,101122.77
2022-12-20T08:49:30.094Z,101124.31
2022-12-20T08:51:59.385Z,101123.00
2022-12-20T08:54:28.993Z,101119.38
2022-12-20T08:56:58.376Z,101113.19
2022-12-20T08:59:28.015Z,101110.33
2022-12-20T09:01:57.337Z,101108.52
2022-12-20T09:04:27.080Z,101110.06
2022-12-20T09:06:56.327Z,101108.66
2022-12-20T09:09:25.772Z,101104.11
2022-12-20T09:11:55.560Z,101108.55
2022-12-20T09:14:25.398Z,101118.91
2022-12-20T09:16:54.628Z,101119.06
2022-12-20T09:19:23.845Z,101124.55
2022-12-20T09:21:53.348Z,101117.86
2022-12-20T09:24:23.137Z,101113.19
2022-12-20T09:26:52.445Z,101114.50
2022-12-20T09:29:28.135Z,101111.75
2022-12-20T09:31:52.916Z,101117.12
2022-12-20T09:34:22.683Z,101121.22
2022-12-20T09:36:52.090Z,101115.58
2022-12-20T09:39:21.403Z,101119.17
2022-12-20T09:41:51.378Z,101120.26
2022-12-20T09:44:25.847Z,101123.62
2022-12-20T09:46:58.419Z,101127.41
2022-12-20T09:49:28.697Z,101132.09
2022-12-20T09:52:06.993Z,101135.69
2022-12-20T09:54:57.586Z,101134.72
2022-12-20T09:57:59.815Z,101131.36
2022-12-20T10:00:30.263Z,101131.73
2022-12-20T10:03:08.714Z,101131.73
2022-12-20T10:05:55.015Z,101127.33
2022-12-20T10:08:51.056Z,101127.09
2022-12-20T10:11:50.940Z,101123.88
2022-12-20T10:14:29.652Z,101125.05
2022-12-20T10:17:32.729Z,101119.91
2022-12-20T10:20:03.480Z,101122.41
2022-12-20T10:22:38.907Z,101122.06
2022-12-20T10:25:20.340Z,101116.58
2022-12-20T10:27:51.057Z,101114.06
2022-12-20T10:30:22.587Z,101111.81
2022-12-20T10:32:54.239Z,101119.20
2022-12-20T10:35:31.828Z,101114.17
2022-12-20T10:38:08.404Z,101118.73
2022-12-20T10:43:20.769Z,101112.52
2022-12-20T10:45:58.953Z,101105.70
2022-12-20T10:48:36.059Z,101111.91
2022-12-20T10:51:16.641Z,101107.26
2022-12-20T10:53:59.603Z,101100.67
2022-12-20T10:56:34.226Z,101096.62
2022-12-20T10:59:18.529Z,101094.84
2022-12-20T11:01:49.225Z,101088.61
2022-12-20T11:04:33.297Z,101096.02
2022-12-20T11:07:05.679Z,101096.75
2022-12-20T11:09:37.419Z,101089.22
2022-12-20T11:12:17.341Z,101094.72
2022-12-20T11:14:49.102Z,101077.36
2022-12-20T11:17:24.551Z,101086.94
2022-12-20T11:20:02.782Z,101083.23
2022-12-20T11:22:51.699Z,101079.39
2022-12-20T11:25:36.041Z,101083.48
2022-12-20T11:28:24.871Z,101070.68
2022-12-20T11:31:00.502Z,101076.77
2022-12-20T11:33:55.670Z,101077.52
2022-12-20T11:36:43.438Z,101083.73
2022-12-20T11:39:24.737Z,101078.09
2022-12-20T11:42:30.099Z,101079.55
2022-12-20T11:45:09.212Z,101068.05
2022-12-20T11:48:01.026Z,101068.30
2022-12-20T11:50:54.262Z,101064.11
2022-12-20T11:53:38.496Z,101060.75
2022-12-20T11:56:13.852Z,101056.34
2022-12-20T11:58:48.877Z,101052.39
2022-12-20T12:01:24.545Z,101051.55
2022-12-20T12:04:00.384Z,101051.30
2022-12-20T12:06:39.306Z,101053.00
2022-12-20T12:09:11.699Z,101050.00
2022-12-20T12:14:20.889Z,101054.44
2022-12-20T12:16:52.508Z,101052.15
2022-12-20T12:19:22.585Z,101051.19
2022-12-20T12:21:57.737Z,101046.42
2022-12-20T12:24:36.216Z,101044.48
2022-12-20T12:27:09.834Z,101053.95
2022-12-20T12:29:37.064Z,101049.40
2022-12-20T12:32:10.118Z,101042.72
2022-12-20T12:34:58.990Z,101041.04
2022-12-20T12:37:52.520Z,101043.41
2022-12-20T12:40:59.689Z,101050.00
2022-12-20T12:43:46.424Z,101043.05
2022-12-20T12:46:22.274Z,101046.53
2022-12-20T12:49:03.282Z,101039.70
2022-12-20T12:51:38.871Z,101045.58
2022-12-20T12:54:20.119Z,101044.98
2022-12-20T12:56:50.854Z,101042.45
2022-12-20T12:59:37.831Z,101047.72
2022-12-20T13:02:21.198Z,101044.61
2022-12-20T13:05:13.556Z,101041.16
2022-12-20T13:07:44.554Z,101046.42
2022-12-20T13:10:20.473Z,101043.66
2022-12-20T13:12:53.143Z,101046.41
2022-12-20T13:15:23.451Z,101036.01
2022-12-20T13:18:03.292Z,101042.72
2022-12-20T13:20:34.788Z,101037.80
2022-12-20T13:23:13.054Z,101041.02
2022-12-20T13:25:44.465Z,101036.38
2022-12-20T13:28:29.194Z,101039.26
2022-12-20T13:31:07.716Z,101041.14
2022-12-20T13:33:42.918Z,101037.44
2022-12-20T13:36:15.335Z,101037.20
2022-12-20T13:38:58.896Z,101038.76
2022-12-20T13:41:42.610Z,101034.45
2022-12-20T13:44:27.521Z,101037.92
2022-12-20T13:47:08.746Z,101033.87
2022-12-20T13:49:40.214Z,101030.63
2022-12-20T13:52:27.192Z,101031.48
2022-12-20T13:54:58.837Z,101030.75
2022-12-20T13:57:42.032Z,101034.00
2022-12-20T14:00:28.454Z,101029.44
2022-12-20T14:02:58.134Z,101023.48
2022-12-20T14:05:30.302Z,101026.45
2022-12-20T14:08:11.627Z,101025.50
2022-12-20T14:10:40.964Z,101037.11
2022-12-20T14:13:29.275Z,101042.95
2022-12-20T14:16:01.664Z,101042.72
2022-12-20T14:18:31.206Z,101042.60
2022-12-20T14:21:03.697Z,101041.05
2022-12-20T14:23:39.231Z,101030.77
2022-12-20T14:26:11.622Z,101021.20
2022-12-20T14:28:46.707Z,101030.41
2022-12-20T14:31:39.538Z,101027.77
2022-12-20T14:34:14.720Z,101029.80
2022-12-20T14:36:48.895Z,101023.70
2022-12-20T14:39:32.704Z,101025.86
2022-12-20T14:42:04.119Z,101011.64
2022-12-20T14:44:34.245Z,101008.66
2022-12-20T14:47:25.070Z,101017.75
2022-12-20T14:50:00.239Z,101024.79
2022-12-20T14:52:38.103Z,101026.69
2022-12-20T14:55:13.945Z,101025.49
2022-12-20T14:57:52.025Z,101031.36
2022-12-20T15:00:24.784Z,101029.31
2022-12-20T15:03:00.098Z,101028.00
2022-12-20T15:05:38.966Z,101027.42
2022-12-20T15:08:32.213Z,101022.50
2022-12-20T15:11:13.791Z,101017.25
2022-12-20T15:13:50.392Z,101023.13
2022-12-20T15:16:25.542Z,101023.35
2022-12-20T15:18:57.372Z,101018.57
2022-12-20T15:21:37.380Z,101021.08
2022-12-20T15:24:10.319Z,101016.77
2022-12-20T15:26:38.835Z,101023.70
2022-12-20T15:29:08.456Z,101021.56
2022-12-20T15:31:38.020Z,101022.49
2022-12-20T15:34:22.618Z,101029.80
2022-12-20T15:36:51.812Z,101030.86
2022-12-20T15:39:21.826Z,101030.62
2022-12-20T15:41:51.360Z,101024.67
2022-12-20T15:44:25.247Z,101027.17
2022-12-20T15:46:54.714Z,101033.48
2022-12-20T15:49:27.613Z,101033.98
2022-12-20T15:51:57.280Z,101043.66
2022-12-20T15:54:29.659Z,101044.73
2022-12-20T15:57:02.205Z,101048.33
2022-12-20T15:59:59.090Z,101047.23
2022-12-20T16:02:03.607Z,101050.95
2022-12-20T16:04:33.198Z,101053.44
2022-12-20T16:07:05.199Z,101052.36
2022-12-20T16:09:33.337Z,101052.73
2022-12-20T16:12:03.583Z,101049.14
2022-12-20T16:14:33.191Z,101055.37
2022-12-20T16:17:02.450Z,101044.13
2022-12-20T16:19:31.966Z,101051.36
2022-12-20T16:22:01.421Z,101050.05
2022-12-20T16:24:30.720Z,101047.69
2022-12-20T16:27:00.012Z,101038.48
2022-12-20T16:29:29.232Z,101045.76
2022-12-20T16:31:58.821Z,101038.69
2022-12-20T16:34:28.141Z,101045.76
2022-12-20T16:36:57.629Z,101040.00
2022-12-20T16:39:26.852Z,101035.25
2022-12-20T16:41:56.568Z,101029.87
2022-12-20T16:44:25.807Z,101028.41
2022-12-20T16:46:55.498Z,101029.97
2022-12-20T16:49:25.169Z,101021.15
2022-12-20T16:51:54.581Z,101012.88
2022-12-20T16:54:24.529Z,101009.67
2022-12-20T16:56:55.155Z,101008.59
2022-12-20T16:59:25.436Z,101016.47
2022-12-20T17:01:57.564Z,101026.25
2022-12-20T17:04:27.260Z,101026.61
2022-12-20T17:06:56.896Z,101030.08
2022-12-20T17:09:26.458Z,101039.66
2022-12-20T17:11:55.994Z,101042.17
2022-12-20T17:14:25.226Z,101037.27
2022-12-20T17:16:54.609Z,101039.54
2022-12-20T17:19:23.847Z,101038.08
2022-12-20T17:24:40.813Z,101035.60
2022-12-20T17:27:12.268Z,101037.61
2022-12-20T17:29:41.486Z,101043.72
2022-12-20T17:32:17.346Z,101042.17
2022-12-20T17:34:46.664Z,101051.72
2022-12-20T17:37:17.478Z,101057.09
2022-12-20T17:39:46.877Z,101052.30
2022-12-20T17:42:16.690Z,101057.32
2022-12-20T17:44:49.080Z,101057.91
2022-12-20T17:47:18.438Z,101058.17
2022-12-20T17:49:48.190Z,101059.48
2022-12-20T17:52:17.598Z,101064.70
2022-12-20T17:54:47.221Z,101060.41
2022-12-20T17:57:17.490Z,101054.81
2022-12-20T17:59:46.939Z,101060.91
2022-12-20T18:02:22.000Z,101059.60
2022-12-20T18:04:52.353Z,101053.84
2022-12-20T18:07:21.623Z,101050.28
2022-12-20T18:09:51.326Z,101043.72
2022-12-20T18:12:22.349Z,101056.59
2022-12-20T18:14:51.622Z,101048.13
2022-12-20T18:17:20.875Z,101046.70
2022-12-20T18:19:52.053Z,101054.55
2022-12-20T18:22:21.347Z,101055.62
2022-12-20T18:24:50.960Z,101060.64
2022-12-20T18:27:23.826Z,101061.50
2022-12-20T18:29:51.378Z,101064.82
2022-12-20T18:32:20.695Z,101058.63
2022-12-20T18:34:50.186Z,101054.20
2022-12-20T18:37:19.443Z,101056.70
2022-12-20T18:39:48.957Z,101054.81
2022-12-20T18:42:18.459Z,101052.06
2022-12-20T18:44:48.038Z,101051.69
2022-12-20T18:47:17.364Z,101060.91
2022-12-20T18:49:46.832Z,101057.09
2022-12-20T18:52:16.098Z,101051.10
2022-12-20T18:54:45.484Z,101052.65
2022-12-20T18:57:14.803Z,101063.89
2022-12-20T18:59:44.384Z,101059.48
2022-12-20T19:02:15.061Z,101058.87
2022-12-20T19:04:45.231Z,101069.38
2022-12-20T19:07:15.561Z,101065.55
2022-12-20T19:09:45.288Z,101069.38
2022-12-20T19:12:14.524Z,101064.59
2022-12-20T19:14:44.183Z,101063.05
2022-12-20T19:17:13.717Z,101062.58
2022-12-20T19:19:43.467Z,101061.14
2022-12-20T19:22:12.742Z,101060.18
2022-12-20T19:24:42.189Z,101058.25
2022-12-20T19:27:11.546Z,101050.14
2022-12-20T19:29:41.369Z,101051.59
2022-12-20T19:32:10.685Z,101056.24
2022-12-20T19:34:40.501Z,101055.39
2022-12-20T19:37:09.831Z,101056.01
2022-12-20T19:39:39.534Z,101064.59
2022-12-20T19:42:25.475Z,101065.91
2022-12-20T19:44:40.708Z,101077.84
2022-12-20T19:47:10.041Z,101077.49
2022-12-20T19:49:39.484Z,101071.89
2022-12-20T19:52:09.145Z,101074.40
2022-12-20T19:54:39.999Z,101063.05
2022-12-20T19:57:10.359Z,101060.18
2022-12-20T19:59:39.919Z,101062.19
2022-12-20T20:02:11.157Z,101060.73
2022-12-20T20:04:40.883Z,101062.88
2022-12-20T20:07:10.329Z,101065.75
2022-12-20T20:09:39.924Z,101077.22
2022-12-20T20:12:09.291Z,101084.64
2022-12-20T20:14:38.757Z,101099.13
2022-12-20T20:17:09.201Z,101096.50
2022-12-20T20:19:38.791Z,101101.02
2022-12-20T20:22:10.170Z,101101.14
2022-12-20T20:24:39.931Z,101094.22
2022-12-20T20:27:09.212Z,101098.05
2022-12-20T20:29:38.550Z,101102.00
2022-12-20T20:32:07.807Z,101104.16
2022-12-20T20:34:37.480Z,101103.19
2022-12-20T20:37:06.959Z,101104.16
2022-12-20T20:39:36.213Z,101104.16
2022-12-20T20:42:07.129Z,101107.36
2022-12-20T20:44:36.467Z,101107.59
2022-12-20T20:47:05.973Z,101109.64
2022-12-20T20:49:35.383Z,101105.70
2022-12-20T20:52:04.744Z,101111.88
2022-12-20T20:54:34.226Z,101119.92
2022-12-20T20:57:03.528Z,101117.41
2022-12-20T20:59:33.181Z,101118.10
2022-12-20T21:02:02.766Z,101117.87
2022-12-20T21:04:32.406Z,101115.36
2022-12-20T21:07:01.611Z,101108.41
2022-12-20T21:09:32.467Z,101114.73
2022-12-20T21:12:01.933Z,101111.26
2022-12-20T21:15:10.489Z,101114.84
2022-12-20T21:17:02.923Z,101129.88
2022-12-20T21:19:32.503Z,101131.19
2022-12-20T21:22:01.740Z,101128.33
2022-12-20T21:24:31.271Z,101129.36
2022-12-20T21:27:00.529Z,101123.02
2022-12-20T21:29:29.842Z,101120.16
2022-12-20T21:31:59.372Z,101116.23
2022-12-20T21:34:29.228Z,101128.11
2022-12-20T21:36:58.549Z,101122.86
2022-12-20T21:39:27.923Z,101121.19
2022-12-20T21:42:01.985Z,101119.13
2022-12-20T21:44:28.319Z,101127.86
2022-12-20T21:46:57.699Z,101132.95
2022-12-20T21:49:27.231Z,101117.70
2022-12-20T21:51:57.019Z,101119.58
2022-12-20T21:54:26.766Z,101117.06
2022-12-20T21:56:56.210Z,101118.11
2022-12-20T21:59:26.109Z,101120.14
2022-12-20T22:01:55.994Z,101129.92
2022-12-20T22:04:26.053Z,101132.55
2022-12-20T22:06:55.363Z,101121.78
2022-12-20T22:09:25.309Z,101120.69
2022-12-20T22:11:54.537Z,101122.23
2022-12-20T22:14:23.875Z,101131.03
2022-12-20T22:16:54.822Z,101136.91
2022-12-20T22:19:24.833Z,101133.44
2022-12-20T22:21:58.281Z,101136.28
2022-12-20T22:24:25.489Z,101137.59
2022-12-20T22:26:54.735Z,101144.31
2022-12-20T22:29:24.239Z,101141.42
2022-12-20T22:31:53.570Z,101140.38
2022-12-20T22:34:23.175Z,101141.30
2022-12-20T22:36:52.816Z,101140.82
2022-12-20T22:39:22.046Z,101136.28
2022-12-20T22:41:51.325Z,101137.81
2022-12-20T22:44:20.570Z,101131.77
2022-12-20T22:46:49.810Z,101131.64
2022-12-20T22:49:19.352Z,101129.69
2022-12-20T22:51:59.320Z,101124.03
2022-12-20T22:54:20.155Z,101133.95
2022-12-20T22:56:49.572Z,101138.72
2022-12-20T22:59:18.987Z,101142.54
2022-12-20T23:01:48.801Z,101145.36
2022-12-20T23:04:18.192Z,101152.41
2022-12-20T23:06:47.844Z,101152.98
2022-12-20T23:09:17.026Z,101148.58
2022-12-20T23:12:04.880Z,101154.12
2022-12-20T23:14:52.285Z,101153.04
2022-12-20T23:17:21.843Z,101153.42
2022-12-20T23:20:09.329Z,101155.31
2022-12-20T23:22:38.535Z,101154.34
2022-12-20T23:25:16.208Z,101151.13
2022-12-20T23:27:48.151Z,101138.11
2022-12-20T23:30:20.877Z,101142.63
2022-12-20T23:32:50.265Z,101135.70
2022-12-20T23:35:21.286Z,101136.06
2022-12-20T23:37:50.535Z,101129.47
2022-12-20T23:40:19.927Z,101126.69
2022-12-20T23:42:49.118Z,101128.10
2022-12-20T23:45:18.792Z,101122.72
2022-12-20T23:47:47.981Z,101140.23
2022-12-20T23:50:17.617Z,101136.88
2022-12-20T23:52:46.821Z,101146.33
2022-12-20T23:55:16.331Z,101152.34
2022-12-20T23:57:45.550Z,101154.51
